createdAt,value
2022-08-01T00:00:58.665Z,16.59
2022-08-01T00:03:25.563Z,16.46
2022-08-01T00:05:52.444Z,16.53
2022-08-01T00:08:19.318Z,16.05
2022-08-01T00:10:46.205Z,16.05
2022-08-01T00:13:20.239Z,15.94
2022-08-01T00:15:54.227Z,15.96
2022-08-01T00:18:21.782Z,15.91
2022-08-01T00:20:48.629Z,15.83
2022-08-01T00:23:18.462Z,16.20
2022-08-01T00:25:45.417Z,16.22
2022-08-01T00:28:12.516Z,16.45
2022-08-01T00:30:39.412Z,16.47
2022-08-01T00:33:06.406Z,16.44
2022-08-01T00:35:33.279Z,16.10
2022-08-01T00:38:00.200Z,15.95
2022-08-01T00:40:27.102Z,15.99
2022-08-01T00:42:53.955Z,16.05
2022-08-01T00:45:20.868Z,16.26
2022-08-01T00:47:48.129Z,16.06
2022-08-01T00:50:22.350Z,16.17
2022-08-01T00:52:51.664Z,16.17
2022-08-01T00:55:20.728Z,16.08
2022-08-01T00:58:02.211Z,15.99
2022-08-01T01:00:34.812Z,16.09
2022-08-01T01:03:19.531Z,15.82
2022-08-01T01:06:16.727Z,15.73
2022-08-01T01:09:04.640Z,15.49
2022-08-01T01:11:45.798Z,15.48
2022-08-01T01:14:47.302Z,15.40
2022-08-01T01:17:50.417Z,15.55
2022-08-01T01:20:13.290Z,15.25
2022-08-01T01:23:52.841Z,15.36
2022-08-01T01:26:40.652Z,15.49
2022-08-01T01:29:29.063Z,15.53
2022-08-01T01:32:06.931Z,15.38
2022-08-01T01:34:41.398Z,15.34
2022-08-01T01:37:16.050Z,15.24
2022-08-01T01:39:45.353Z,15.28
2022-08-01T01:42:22.274Z,15.27
2022-08-01T01:44:51.453Z,15.22
2022-08-01T01:47:18.853Z,15.41
2022-08-01T01:49:48.614Z,15.43
2022-08-01T01:52:18.457Z,15.46
2022-08-01T01:54:52.084Z,15.28
2022-08-01T01:57:19.848Z,15.35
2022-08-01T01:59:55.704Z,15.25
2022-08-01T02:02:25.551Z,15.43
2022-08-01T02:04:53.716Z,15.40
2022-08-01T02:07:26.525Z,15.39
2022-08-01T02:10:03.939Z,15.14
2022-08-01T02:12:36.337Z,15.06
2022-08-01T02:15:05.287Z,15.49
2022-08-01T02:17:32.615Z,15.45
2022-08-01T02:20:00.040Z,15.32
2022-08-01T02:22:43.523Z,15.25
2022-08-01T02:25:35.781Z,15.31
2022-08-01T02:28:10.490Z,15.23
2022-08-01T02:30:51.438Z,15.38
2022-08-01T02:33:26.299Z,15.34
2022-08-01T02:36:30.027Z,15.21
2022-08-01T02:38:48.059Z,14.88
2022-08-01T02:41:22.417Z,14.60
2022-08-01T02:43:59.364Z,14.61
2022-08-01T02:46:36.104Z,14.84
2022-08-01T02:49:08.224Z,14.98
2022-08-01T02:51:37.182Z,14.87
2022-08-01T02:54:08.312Z,15.07
2022-08-01T02:56:36.231Z,15.07
2022-08-01T02:59:16.654Z,14.88
2022-08-01T03:01:49.487Z,14.94
2022-08-01T03:04:19.744Z,14.86
2022-08-01T03:06:48.537Z,14.56
2022-08-01T03:09:17.246Z,14.34
2022-08-01T03:11:46.745Z,13.99
2022-08-01T03:14:15.614Z,14.19
2022-08-01T03:16:45.952Z,14.09
2022-08-01T03:19:15.175Z,14.28
2022-08-01T03:21:44.467Z,14.32
2022-08-01T03:24:12.796Z,14.64
2022-08-01T03:26:41.389Z,14.49
2022-08-01T03:29:35.214Z,14.56
2022-08-01T03:32:04.031Z,14.71
2022-08-01T03:34:31.985Z,14.54
2022-08-01T03:37:15.868Z,14.72
2022-08-01T03:39:53.644Z,14.54
2022-08-01T03:42:30.613Z,14.56
2022-08-01T03:45:05.629Z,14.46
2022-08-01T03:47:43.702Z,14.51
2022-08-01T03:50:14.888Z,14.23
2022-08-01T03:52:46.555Z,14.31
2022-08-01T03:55:15.477Z,14.30
2022-08-01T03:57:43.645Z,14.15
2022-08-01T04:00:11.928Z,14.28
2022-08-01T04:02:39.601Z,14.31
2022-08-01T04:05:08.299Z,14.28
2022-08-01T04:07:40.445Z,14.13
2022-08-01T04:10:07.985Z,13.91
2022-08-01T04:12:37.616Z,13.99
2022-08-01T04:15:06.511Z,14.20
2022-08-01T04:17:33.457Z,14.03
2022-08-01T04:20:00.355Z,14.17
2022-08-01T04:22:28.268Z,14.00
2022-08-01T04:24:57.888Z,13.80
2022-08-01T04:27:50.476Z,14.03
2022-08-01T04:30:23.678Z,14.18
2022-08-01T04:32:54.140Z,13.92
2022-08-01T04:36:00.912Z,13.82
2022-08-01T04:38:24.808Z,14.05
2022-08-01T04:40:53.446Z,14.19
2022-08-01T04:43:20.430Z,14.00
2022-08-01T04:45:48.907Z,13.92
2022-08-01T04:48:18.856Z,13.81
2022-08-01T04:50:46.334Z,13.48
2022-08-01T04:53:19.028Z,13.55
2022-08-01T04:55:49.493Z,13.30
2022-08-01T04:58:18.449Z,13.50
2022-08-01T05:00:48.726Z,13.49
2022-08-01T05:03:15.858Z,13.83
2022-08-01T05:05:42.756Z,13.96
2022-08-01T05:08:10.273Z,13.91
2022-08-01T05:10:37.108Z,14.15
2022-08-01T05:13:03.982Z,14.23
2022-08-01T05:15:30.858Z,14.07
2022-08-01T05:17:57.798Z,14.08
2022-08-01T05:20:24.741Z,14.33
2022-08-01T05:22:51.591Z,14.27
2022-08-01T05:25:20.615Z,14.25
2022-08-01T05:28:08.417Z,14.33
2022-08-01T05:30:35.370Z,14.33
2022-08-01T05:33:02.238Z,14.36
2022-08-01T05:35:47.826Z,14.45
2022-08-01T05:38:16.142Z,14.55
2022-08-01T05:40:43.111Z,14.66
2022-08-01T05:43:10.025Z,14.75
2022-08-01T05:45:43.960Z,14.84
2022-08-01T05:48:10.826Z,15.00
2022-08-01T05:50:37.743Z,14.95
2022-08-01T05:53:04.795Z,15.15
2022-08-01T05:55:31.674Z,15.06
2022-08-01T05:57:59.626Z,15.27
2022-08-01T06:00:26.661Z,15.21
2022-08-01T06:02:53.588Z,15.30
2022-08-01T06:05:20.589Z,15.43
2022-08-01T06:07:47.454Z,15.71
2022-08-01T06:10:14.355Z,15.59
2022-08-01T06:12:41.204Z,15.91
2022-08-01T06:15:09.391Z,15.95
2022-08-01T06:17:36.367Z,16.06
2022-08-01T06:20:04.603Z,16.26
2022-08-01T06:22:31.414Z,16.46
2022-08-01T06:24:58.659Z,16.49
2022-08-01T06:27:28.485Z,16.72
2022-08-01T06:29:55.972Z,16.71
2022-08-01T06:32:26.878Z,16.92
2022-08-01T06:34:56.105Z,17.12
2022-08-01T06:37:24.237Z,17.17
2022-08-01T06:39:51.233Z,17.23
2022-08-01T06:42:18.844Z,17.26
2022-08-01T06:44:46.212Z,17.56
2022-08-01T06:47:13.364Z,17.83
2022-08-01T06:49:40.303Z,17.94
2022-08-01T06:52:07.657Z,17.99
2022-08-01T06:54:34.846Z,18.05
2022-08-01T06:57:01.916Z,18.45
2022-08-01T06:59:28.802Z,18.55
2022-08-01T07:01:55.641Z,18.77
2022-08-01T07:04:22.670Z,18.99
2022-08-01T07:06:49.737Z,19.09
2022-08-01T07:09:16.589Z,19.16
2022-08-01T07:11:43.439Z,19.47
2022-08-01T07:14:10.295Z,19.70
2022-08-01T07:16:37.306Z,20.11
2022-08-01T07:19:04.284Z,20.33
2022-08-01T07:21:40.241Z,20.47
2022-08-01T07:24:15.159Z,20.77
2022-08-01T07:26:53.306Z,20.81
2022-08-01T07:29:25.615Z,21.16
2022-08-01T07:31:58.018Z,21.31
2022-08-01T07:34:25.873Z,21.48
2022-08-01T07:36:53.960Z,21.41
2022-08-01T07:39:21.304Z,21.73
2022-08-01T07:42:06.274Z,21.79
2022-08-01T07:44:35.642Z,22.17
2022-08-01T07:47:05.618Z,22.23
2022-08-01T07:49:36.246Z,22.29
2022-08-01T07:52:20.291Z,22.64
2022-08-01T07:57:19.129Z,23.03
2022-08-01T08:00:12.312Z,23.18
2022-08-01T08:02:39.190Z,23.33
2022-08-01T08:05:08.357Z,23.45
2022-08-01T08:07:35.587Z,23.47
2022-08-01T08:10:10.356Z,23.72
2022-08-01T08:12:37.352Z,23.76
2022-08-01T08:15:07.014Z,23.65
2022-08-01T08:17:35.670Z,23.87
2022-08-01T08:20:13.480Z,24.15
2022-08-01T08:22:43.588Z,24.26
2022-08-01T08:25:10.695Z,24.45
2022-08-01T08:27:38.820Z,24.47
2022-08-01T08:30:08.909Z,24.69
2022-08-01T08:32:37.290Z,24.71
2022-08-01T08:35:05.837Z,24.94
2022-08-01T08:37:37.890Z,25.04
2022-08-01T08:40:10.974Z,25.28
2022-08-01T08:42:41.851Z,25.07
2022-08-01T08:45:12.097Z,25.12
2022-08-01T08:47:40.738Z,25.36
2022-08-01T08:50:08.078Z,25.22
2022-08-01T08:52:40.297Z,25.47
2022-08-01T08:55:08.937Z,25.55
2022-08-01T08:57:36.148Z,25.44
2022-08-01T09:00:03.860Z,25.62
2022-08-01T09:02:30.731Z,25.76
2022-08-01T09:04:58.905Z,25.75
2022-08-01T09:07:27.278Z,25.83
2022-08-01T09:09:54.803Z,25.89
2022-08-01T09:12:21.739Z,26.08
2022-08-01T09:14:57.217Z,26.36
2022-08-01T09:17:29.638Z,26.44
2022-08-01T09:19:57.861Z,26.46
2022-08-01T09:22:26.798Z,26.42
2022-08-01T09:25:20.458Z,26.02
2022-08-01T09:28:06.897Z,26.19
2022-08-01T09:30:40.883Z,26.21
2022-08-01T09:33:18.049Z,26.41
2022-08-01T09:35:57.382Z,26.45
2022-08-01T09:38:28.299Z,26.35
2022-08-01T09:41:01.398Z,26.21
2022-08-01T09:43:32.080Z,26.36
2022-08-01T09:46:01.089Z,26.69
2022-08-01T09:48:30.246Z,26.79
2022-08-01T09:51:04.944Z,27.10
2022-08-01T09:53:51.757Z,27.14
2022-08-01T09:56:21.857Z,27.21
2022-08-01T09:59:02.012Z,27.66
2022-08-01T10:01:50.614Z,27.51
2022-08-01T10:04:21.396Z,27.62
2022-08-01T10:06:53.736Z,27.80
2022-08-01T10:09:35.834Z,27.72
2022-08-01T10:12:15.780Z,27.79
2022-08-01T10:14:53.279Z,27.50
2022-08-01T10:17:22.717Z,27.40
2022-08-01T10:19:55.775Z,27.48
2022-08-01T10:22:25.871Z,27.94
2022-08-01T10:24:58.042Z,28.26
2022-08-01T10:27:38.393Z,27.88
2022-08-01T10:30:16.908Z,28.21
2022-08-01T10:32:55.140Z,28.49
2022-08-01T10:35:46.501Z,28.55
2022-08-01T10:38:10.626Z,28.80
2022-08-01T10:40:38.964Z,29.20
2022-08-01T10:43:06.994Z,29.18
2022-08-01T10:45:34.615Z,29.45
2022-08-01T10:48:20.882Z,29.58
2022-08-01T10:50:51.227Z,29.67
2022-08-01T10:53:24.022Z,29.85
2022-08-01T10:55:59.377Z,30.02
2022-08-01T10:58:39.568Z,29.89
2022-08-01T11:01:25.585Z,30.33
2022-08-01T11:04:02.193Z,30.22
2022-08-01T11:06:35.302Z,30.22
2022-08-01T11:09:17.085Z,29.53
2022-08-01T11:12:12.862Z,29.80
2022-08-01T11:14:59.502Z,29.67
2022-08-01T11:17:54.939Z,29.36
2022-08-01T11:20:34.644Z,29.26
2022-08-01T11:23:07.940Z,29.43
2022-08-01T11:26:03.316Z,29.31
2022-08-01T11:28:33.149Z,29.08
2022-08-01T11:31:11.122Z,29.26
2022-08-01T11:33:45.790Z,29.18
2022-08-01T11:36:22.338Z,29.11
2022-08-01T11:38:59.010Z,29.20
2022-08-01T11:41:37.498Z,29.10
2022-08-01T11:44:12.118Z,29.37
2022-08-01T11:47:01.602Z,29.67
2022-08-01T11:49:49.412Z,29.81
2022-08-01T11:52:28.782Z,29.98
2022-08-01T11:55:03.252Z,30.01
2022-08-01T11:57:36.252Z,30.36
2022-08-01T12:00:18.059Z,30.69
2022-08-01T12:02:49.653Z,30.88
2022-08-01T12:05:24.825Z,31.00
2022-08-01T12:07:53.392Z,30.61
2022-08-01T12:10:23.957Z,30.32
2022-08-01T12:12:58.671Z,30.35
2022-08-01T12:15:36.045Z,30.36
2022-08-01T12:18:05.908Z,30.08
2022-08-01T12:20:55.739Z,29.82
2022-08-01T12:23:23.759Z,29.69
2022-08-01T12:25:54.658Z,29.88
2022-08-01T12:28:21.941Z,29.99
2022-08-01T12:30:50.020Z,30.18
2022-08-01T12:33:20.488Z,30.38
2022-08-01T12:35:48.302Z,30.30
2022-08-01T12:38:28.047Z,30.16
2022-08-01T12:40:55.997Z,30.17
2022-08-01T12:43:29.452Z,29.82
2022-08-01T12:46:00.792Z,29.66
2022-08-01T12:48:28.677Z,29.64
2022-08-01T12:50:58.863Z,29.52
2022-08-01T12:53:26.978Z,29.02
2022-08-01T12:56:07.157Z,28.99
2022-08-01T12:58:35.191Z,29.05
2022-08-01T13:01:10.449Z,28.99
2022-08-01T13:03:38.269Z,29.01
2022-08-01T13:06:17.157Z,28.68
2022-08-01T13:08:46.195Z,28.59
2022-08-01T13:11:16.573Z,28.67
2022-08-01T13:13:54.337Z,28.61
2022-08-01T13:16:43.350Z,28.55
2022-08-01T13:19:15.070Z,28.54
2022-08-01T13:21:56.298Z,28.40
2022-08-01T13:24:30.989Z,28.11
2022-08-01T13:27:05.290Z,28.09
2022-08-01T13:29:39.579Z,27.01
2022-08-01T13:32:28.037Z,26.81
2022-08-01T13:35:08.663Z,26.72
2022-08-01T13:37:38.421Z,27.31
2022-08-01T13:40:08.055Z,27.01
2022-08-01T13:42:35.587Z,27.50
2022-08-01T13:45:04.389Z,27.74
2022-08-01T13:47:41.223Z,28.10
2022-08-01T13:50:37.083Z,28.52
2022-08-01T13:53:04.053Z,28.77
2022-08-01T13:55:34.505Z,29.08
2022-08-01T13:58:02.131Z,29.19
2022-08-01T14:00:36.989Z,29.56
2022-08-01T14:03:04.268Z,29.71
2022-08-01T14:05:31.812Z,29.95
2022-08-01T14:07:58.687Z,29.47
2022-08-01T14:10:25.945Z,29.21
2022-08-01T14:12:52.847Z,29.28
2022-08-01T14:15:37.736Z,29.30
2022-08-01T14:18:09.714Z,29.04
2022-08-01T14:20:39.105Z,28.96
2022-08-01T14:23:06.385Z,29.11
2022-08-01T14:26:03.618Z,28.91
2022-08-01T14:28:29.298Z,28.78
2022-08-01T14:30:58.000Z,28.30
2022-08-01T14:33:25.091Z,28.51
2022-08-01T14:36:05.898Z,28.70
2022-08-01T14:38:38.965Z,28.68
2022-08-01T14:41:06.187Z,28.85
2022-08-01T14:43:34.088Z,28.87
2022-08-01T14:46:05.590Z,29.09
2022-08-01T14:48:32.977Z,29.04
2022-08-01T14:51:03.958Z,29.14
2022-08-01T14:53:31.855Z,29.08
2022-08-01T14:56:05.094Z,28.81
2022-08-01T14:58:32.194Z,28.58
2022-08-01T15:01:06.945Z,28.36
2022-08-01T15:03:34.336Z,28.05
2022-08-01T15:06:02.571Z,27.93
2022-08-01T15:08:31.040Z,27.94
2022-08-01T15:10:58.015Z,27.95
2022-08-01T15:13:25.086Z,28.42
2022-08-01T15:15:53.036Z,28.64
2022-08-01T15:18:19.917Z,28.86
2022-08-01T15:20:46.915Z,28.89
2022-08-01T15:23:13.918Z,29.04
2022-08-01T15:25:42.191Z,29.05
2022-08-01T15:28:12.754Z,29.01
2022-08-01T15:30:40.377Z,29.11
2022-08-01T15:33:08.078Z,29.12
2022-08-01T15:35:35.429Z,29.19
2022-08-01T15:38:02.496Z,29.26
2022-08-01T15:40:30.587Z,29.25
2022-08-01T15:42:57.456Z,29.28
2022-08-01T15:48:11.312Z,29.02
2022-08-01T15:50:39.442Z,29.03
2022-08-01T15:53:07.540Z,29.06
2022-08-01T15:55:38.662Z,28.60
2022-08-01T15:58:07.472Z,28.31
2022-08-01T16:00:39.194Z,27.67
2022-08-01T16:03:10.662Z,27.64
2022-08-01T16:05:43.603Z,27.36
2022-08-01T16:08:14.378Z,27.44
2022-08-01T16:10:41.921Z,27.67
2022-08-01T16:13:09.983Z,27.35
2022-08-01T16:15:39.365Z,27.08
2022-08-01T16:18:08.902Z,26.99
2022-08-01T16:20:38.283Z,27.33
2022-08-01T16:23:10.019Z,27.25
2022-08-01T16:25:36.967Z,27.56
2022-08-01T16:28:04.243Z,27.32
2022-08-01T16:30:31.160Z,27.47
2022-08-01T16:33:05.520Z,27.50
2022-08-01T16:35:44.124Z,27.35
2022-08-01T16:38:13.895Z,27.44
2022-08-01T16:40:47.567Z,27.44
2022-08-01T16:43:16.662Z,27.41
2022-08-01T16:45:44.062Z,27.47
2022-08-01T16:48:18.482Z,27.21
2022-08-01T16:50:56.113Z,27.25
2022-08-01T16:53:23.948Z,27.23
2022-08-01T16:55:51.162Z,27.29
2022-08-01T16:58:27.816Z,27.32
2022-08-01T17:00:57.616Z,27.19
2022-08-01T17:03:46.842Z,27.43
2022-08-01T17:06:14.074Z,27.42
2022-08-01T17:08:46.277Z,27.19
2022-08-01T17:11:17.562Z,27.08
2022-08-01T17:13:56.696Z,27.11
2022-08-01T17:16:23.747Z,27.10
2022-08-01T17:18:50.737Z,26.81
2022-08-01T17:21:18.343Z,26.55
2022-08-01T17:23:45.290Z,26.56
2022-08-01T17:26:12.195Z,26.58
2022-08-01T17:28:39.873Z,26.54
2022-08-01T17:31:09.380Z,26.39
2022-08-01T17:33:45.705Z,26.24
2022-08-01T17:36:15.075Z,26.44
2022-08-01T17:38:43.100Z,26.38
2022-08-01T17:41:10.157Z,26.11
2022-08-01T17:43:37.130Z,25.98
2022-08-01T17:46:04.355Z,26.19
2022-08-01T17:48:31.296Z,25.95
2022-08-01T17:50:58.320Z,25.87
2022-08-01T17:53:25.281Z,25.74
2022-08-01T17:55:55.930Z,25.76
2022-08-01T17:58:48.775Z,25.49
2022-08-01T18:01:18.521Z,25.27
2022-08-01T18:03:46.161Z,25.33
2022-08-01T18:06:17.548Z,25.29
2022-08-01T18:08:48.466Z,25.26
2022-08-01T18:11:17.053Z,24.86
2022-08-01T18:13:44.977Z,24.66
2022-08-01T18:16:13.472Z,24.55
2022-08-01T18:18:42.323Z,24.21
2022-08-01T18:21:11.977Z,24.35
2022-08-01T18:23:39.379Z,24.26
2022-08-01T18:26:08.546Z,24.02
2022-08-01T18:28:46.679Z,23.93
2022-08-01T18:31:20.639Z,23.78
2022-08-01T18:33:54.017Z,23.87
2022-08-01T18:36:34.307Z,23.64
2022-08-01T18:39:10.332Z,23.51
2022-08-01T18:41:38.658Z,23.53
2022-08-01T18:44:08.374Z,23.30
2022-08-01T18:46:38.688Z,22.80
2022-08-01T18:49:07.994Z,22.88
2022-08-01T18:51:47.114Z,22.86
2022-08-01T18:54:15.668Z,22.65
2022-08-01T18:56:44.573Z,22.86
2022-08-01T18:59:12.485Z,22.54
2022-08-01T19:01:40.008Z,22.35
2022-08-01T19:04:07.744Z,22.11
2022-08-01T19:06:47.607Z,22.13
2022-08-01T19:09:20.391Z,22.08
2022-08-01T19:11:48.138Z,21.92
2022-08-01T19:14:16.485Z,21.79
2022-08-01T19:16:43.559Z,21.86
2022-08-01T19:19:10.718Z,22.03
2022-08-01T19:21:45.710Z,21.60
2022-08-01T19:24:22.702Z,21.71
2022-08-01T19:26:57.828Z,21.70
2022-08-01T19:29:37.845Z,21.44
2022-08-01T19:32:09.254Z,21.48
2022-08-01T19:34:50.610Z,21.62
2022-08-01T19:37:18.225Z,21.58
2022-08-01T19:39:45.547Z,21.47
2022-08-01T19:42:13.583Z,21.49
2022-08-01T19:44:42.031Z,21.32
2022-08-01T19:47:09.912Z,21.42
2022-08-01T19:49:37.262Z,21.41
2022-08-01T19:52:20.089Z,21.17
2022-08-01T19:54:48.139Z,20.93
2022-08-01T19:57:16.287Z,21.13
2022-08-01T19:59:46.881Z,20.94
2022-08-01T20:02:20.100Z,20.97
2022-08-01T20:04:47.883Z,20.90
2022-08-01T20:07:15.538Z,21.01
2022-08-01T20:09:46.948Z,20.99
2022-08-01T20:12:14.912Z,20.83
2022-08-01T20:14:43.955Z,20.98
2022-08-01T20:17:11.080Z,20.72
2022-08-01T20:19:38.169Z,20.82
2022-08-01T20:22:07.939Z,20.74
2022-08-01T20:24:43.937Z,20.88
2022-08-01T20:27:13.925Z,20.81
2022-08-01T20:29:42.045Z,20.86
2022-08-01T20:32:09.728Z,20.88
2022-08-01T20:34:39.603Z,20.85
2022-08-01T20:37:13.150Z,20.85
2022-08-01T20:39:44.907Z,20.59
2022-08-01T20:42:13.993Z,20.75
2022-08-01T20:44:41.993Z,20.79
2022-08-01T20:47:09.382Z,20.46
2022-08-01T20:49:37.896Z,20.40
2022-08-01T20:52:10.939Z,20.49
2022-08-01T20:54:39.832Z,20.65
2022-08-01T20:57:17.104Z,20.49
2022-08-01T20:59:55.440Z,20.72
2022-08-01T21:03:05.067Z,20.70
2022-08-01T21:05:37.172Z,20.30
2022-08-01T21:08:24.219Z,20.37
2022-08-01T21:10:57.783Z,20.42
2022-08-01T21:13:42.475Z,20.23
2022-08-01T21:16:25.290Z,20.34
2022-08-01T21:19:20.179Z,20.25
2022-08-01T21:22:36.709Z,20.25
2022-08-01T21:25:11.028Z,20.27
2022-08-01T21:27:40.574Z,20.29
2022-08-01T21:30:09.727Z,20.23
2022-08-01T21:32:37.956Z,20.27
2022-08-01T21:35:07.857Z,20.01
2022-08-01T21:37:45.504Z,20.13
2022-08-01T21:40:23.757Z,20.19
2022-08-01T21:42:53.741Z,20.15
2022-08-01T21:45:25.571Z,19.93
2022-08-01T21:47:53.114Z,19.89
2022-08-01T21:50:20.608Z,20.13
2022-08-01T21:52:54.681Z,19.92
2022-08-01T21:55:35.201Z,20.11
2022-08-01T21:58:52.561Z,20.07
2022-08-01T22:01:52.321Z,19.98
2022-08-01T22:04:43.742Z,19.99
2022-08-01T22:07:15.047Z,19.96
2022-08-01T22:09:48.208Z,19.84
2022-08-01T22:12:18.476Z,19.68
2022-08-01T22:14:49.563Z,20.06
2022-08-01T22:17:24.174Z,19.89
2022-08-01T22:19:55.117Z,20.02
2022-08-01T22:22:44.614Z,19.79
2022-08-01T22:25:13.552Z,19.91
2022-08-01T22:28:06.593Z,19.68
2022-08-01T22:30:29.279Z,19.85
2022-08-01T22:33:07.811Z,19.68
2022-08-01T22:35:50.073Z,19.47
2022-08-01T22:38:19.378Z,19.41
2022-08-01T22:40:52.924Z,19.45
2022-08-01T22:44:08.830Z,19.51
2022-08-01T22:46:43.314Z,19.31
2022-08-01T22:49:35.072Z,19.44
2022-08-01T22:52:28.126Z,19.40
2022-08-01T22:55:20.205Z,19.47
2022-08-01T22:58:03.842Z,19.30
2022-08-01T23:00:34.286Z,19.45
2022-08-01T23:03:20.791Z,19.27
2022-08-01T23:06:01.768Z,19.46
2022-08-01T23:08:29.004Z,19.21
2022-08-01T23:10:56.275Z,19.40
2022-08-01T23:13:23.587Z,19.22
2022-08-01T23:15:51.900Z,19.16
2022-08-01T23:18:21.459Z,19.36
2022-08-01T23:20:51.115Z,19.04
2022-08-01T23:23:30.872Z,19.28
2022-08-01T23:26:00.620Z,19.14
2022-08-01T23:28:29.059Z,19.19
2022-08-01T23:30:59.083Z,19.01
2022-08-01T23:33:25.948Z,19.16
2022-08-01T23:35:52.789Z,19.11
2022-08-01T23:38:20.476Z,19.03
2022-08-01T23:40:47.608Z,19.11
2022-08-01T23:43:21.889Z,19.00
2022-08-01T23:46:02.140Z,18.78
2022-08-01T23:48:33.576Z,18.88
2022-08-01T23:51:00.748Z,18.69
2022-08-01T23:53:30.593Z,18.68
2022-08-01T23:56:07.089Z,18.42
2022-08-01T23:58:34.078Z,18.62
